Time;durP1;ratioP1;P1;durP2;ratioP2;P2;SDS_P1;SDS_P2;PMS_P1;PMS_P2;Temp;Humidity;BMP_temperature;BMP_pressure;BME280_temperature;BME280_humidity;BME280_pressure;Samples;Min_cycle;Max_cycle;Signal;HPM_P1;HPM_P2
2021/01/06 00:00:22;;;;;;;6.83;5.97;;;;;;;1.28;100.00;99872.35;2082082;85;26372;-64
2021/01/06 00:03:26;;;;;;;6.45;5.85;;;;;;;1.34;100.00;99873.59;2083044;85;25979;-74
2021/01/06 00:06:30;;;;;;;7.33;5.60;;;;;;;1.33;100.00;99881.08;2082642;85;27534;-72
2021/01/06 00:09:31;;;;;;;6.12;5.53;;;;;;;1.22;100.00;99880.30;2082977;85;25799;-73
2021/01/06 00:12:32;;;;;;;7.08;5.58;;;;;;;1.16;100.00;99884.30;2083518;85;26587;-74
2021/01/06 00:15:36;;;;;;;5.67;4.93;;;;;;;1.19;100.00;99879.03;2083368;85;33126;-72
2021/01/06 00:18:38;;;;;;;5.75;5.08;;;;;;;1.13;100.00;99888.28;2083565;85;25714;-73
2021/01/06 00:21:39;;;;;;;5.77;5.20;;;;;;;1.14;100.00;99888.69;2083554;85;27532;-73
2021/01/06 00:24:42;;;;;;;9.63;7.37;;;;;;;1.16;100.00;99889.55;2083317;85;25832;-73
2021/01/06 00:27:43;;;;;;;9.53;6.72;;;;;;;1.17;100.00;99884.73;2083512;85;25927;-73
2021/01/06 00:30:50;;;;;;;6.20;5.60;;;;;;;1.07;100.00;99892.69;2083600;85;25759;-72
2021/01/06 00:33:51;;;;;;;7.80;5.80;;;;;;;0.94;100.00;99888.43;2083452;85;26027;-72
2021/01/06 00:36:52;;;;;;;6.50;5.77;;;;;;;0.97;100.00;99885.80;2083206;85;32560;-73
2021/01/06 00:39:53;;;;;;;5.87;5.27;;;;;;;1.04;100.00;99891.42;2083725;85;35263;-73
2021/01/06 00:42:55;;;;;;;6.30;5.50;;;;;;;1.04;100.00;99891.42;2083432;85;31429;-73
2021/01/06 00:45:56;;;;;;;6.75;5.40;;;;;;;1.14;100.00;99889.58;2083529;85;25711;-73
2021/01/06 00:49:00;;;;;;;6.53;5.93;;;;;;;1.13;100.00;99889.59;2083328;85;26296;-73
2021/01/06 00:52:01;;;;;;;7.65;6.87;;;;;;;1.06;100.00;99892.25;2082838;84;27555;-73
2021/01/06 00:55:04;;;;;;;7.17;6.57;;;;;;;1.04;100.00;99897.09;2083626;85;34854;-73
2021/01/06 00:58:05;;;;;;;7.80;6.37;;;;;;;1.05;100.00;99899.73;2083228;85;25827;-73
2021/01/06 01:01:06;;;;;;;7.47;6.03;;;;;;;1.05;100.00;99898.41;2083389;85;25827;-72
2021/01/06 01:04:07;;;;;;;7.62;5.85;;;;;;;1.04;100.00;99903.23;2083087;85;25894;-72
2021/01/06 01:07:08;;;;;;;6.83;6.08;;;;;;;1.07;100.00;99908.44;2083353;85;27119;-72
2021/01/06 01:10:39;;;;;;;6.67;5.93;;;;;;;1.09;100.00;99898.80;2083438;85;34987;-72
2021/01/06 01:13:39;;;;;;;6.45;5.75;;;;;;;1.09;100.00;99903.20;2083297;85;26199;-72
2021/01/06 01:16:43;;;;;;;6.20;5.60;;;;;;;1.05;100.00;99908.91;2083301;85;33227;-72
2021/01/06 01:19:46;;;;;;;8.70;6.70;;;;;;;0.90;100.00;99910.34;2083270;85;25816;-73
2021/01/06 01:22:48;;;;;;;7.42;6.42;;;;;;;0.99;100.00;99911.56;2083551;85;27628;-73
2021/01/06 01:25:50;;;;;;;7.17;6.20;;;;;;;0.98;100.00;99912.47;2083405;85;26219;-72
2021/01/06 01:28:51;;;;;;;6.92;5.85;;;;;;;0.97;100.00;99911.16;2083287;85;26789;-73
2021/01/06 01:31:52;;;;;;;7.00;6.20;;;;;;;1.04;100.00;99909.80;2083447;85;33209;-71
2021/01/06 01:34:53;;;;;;;9.50;6.10;;;;;;;1.16;100.00;99906.19;2083786;85;25347;-73
2021/01/06 01:37:57;;;;;;;8.13;6.93;;;;;;;1.18;100.00;99910.11;2083104;85;32545;-73
2021/01/06 01:41:03;;;;;;;7.23;6.53;;;;;;;1.14;100.00;99909.27;2083460;85;25895;-73
2021/01/06 01:44:05;;;;;;;8.57;7.17;;;;;;;1.13;100.00;99907.98;2082831;85;25900;-73
2021/01/06 01:47:16;;;;;;;8.10;6.97;;;;;;;1.10;100.00;99914.98;2083250;85;25425;-72
2021/01/06 01:50:18;;;;;;;7.60;6.58;;;;;;;1.02;100.00;99922.05;2086245;84;25865;-72
2021/01/06 01:53:31;;;;;;;7.40;6.13;;;;;;;1.01;100.00;99922.93;2084306;84;27471;-70
2021/01/06 01:56:58;;;;;;;6.75;5.87;;;;;;;0.97;100.00;99925.16;2090680;84;25815;-72
2021/01/06 02:00:08;;;;;;;6.83;6.10;;;;;;;0.93;100.00;99920.80;2104549;84;26622;-73
2021/01/06 02:03:20;;;;;;;6.43;5.70;;;;;;;0.99;100.00;99927.77;2104126;84;25935;-72
2021/01/06 02:06:38;;;;;;;8.85;7.42;;;;;;;0.96;100.00;99927.36;2104541;84;27420;-73
2021/01/06 02:10:00;;;;;;;7.83;6.93;;;;;;;1.01;100.00;99929.49;2104776;84;28285;-69
2021/01/06 02:13:15;;;;;;;9.95;7.92;;;;;;;0.93;100.00;99927.36;2105352;84;25806;-72
2021/01/06 02:16:36;;;;;;;7.37;6.73;;;;;;;0.93;100.00;99936.55;2104616;84;26009;-70
2021/01/06 02:19:43;;;;;;;10.20;7.37;;;;;;;0.98;100.00;99934.78;2105121;84;25827;-72
2021/01/06 02:22:46;;;;;;;8.60;7.80;;;;;;;1.03;100.00;99933.41;2105064;84;25785;-73
2021/01/06 02:25:47;;;;;;;8.17;7.30;;;;;;;1.16;100.00;99936.81;2104688;84;29623;-71
2021/01/06 02:28:49;;;;;;;9.13;7.90;;;;;;;1.09;100.00;99942.11;2104863;84;25748;-72
2021/01/06 02:31:52;;;;;;;9.87;8.90;;;;;;;1.08;100.00;99939.06;2104666;84;26046;-73
2021/01/06 02:34:53;;;;;;;10.43;8.67;;;;;;;1.03;100.00;99939.55;2104834;84;25843;-70
2021/01/06 02:37:54;;;;;;;9.53;8.63;;;;;;;1.02;100.00;99933.86;2104699;84;26774;-73
2021/01/06 02:40:56;;;;;;;9.08;8.05;;;;;;;1.04;100.00;99936.05;2104875;84;27576;-73
2021/01/06 02:43:57;;;;;;;8.70;7.80;;;;;;;0.99;100.00;99934.33;2105030;84;25730;-72
2021/01/06 02:46:58;;;;;;;9.70;8.60;;;;;;;0.99;100.00;99943.06;2105004;84;25792;-73
2021/01/06 02:50:01;;;;;;;11.33;9.40;;;;;;;1.00;100.00;99929.05;2105185;84;25731;-73
2021/01/06 02:53:06;;;;;;;10.50;9.03;;;;;;;1.03;100.00;99936.92;2084024;84;25791;-72
2021/01/06 02:56:08;;;;;;;10.25;9.13;;;;;;;1.03;100.00;99943.48;2083505;85;28524;-73
2021/01/06 02:59:13;;;;;;;13.20;10.30;;;;;;;0.91;100.00;99933.09;2067657;85;26087;-73
2021/01/06 03:02:22;;;;;;;10.28;9.08;;;;;;;0.87;100.00;99933.55;2083137;85;26719;-73
2021/01/06 03:05:36;;;;;;;9.73;8.70;;;;;;;0.76;100.00;99936.26;2067732;85;26460;-72
2021/01/06 03:08:38;;;;;;;9.88;8.43;;;;;;;0.73;100.00;99934.95;2083336;85;25909;-69
2021/01/06 03:11:40;;;;;;;9.98;8.93;;;;;;;0.73;100.00;99938.03;2083228;85;27534;-71
2021/01/06 03:14:41;;;;;;;11.20;9.53;;;;;;;0.73;100.00;99941.52;2083273;85;25785;-72
2021/01/06 03:17:43;;;;;;;11.63;10.43;;;;;;;0.75;100.00;99938.45;2067339;85;26549;-73
2021/01/06 03:20:46;;;;;;;11.67;10.47;;;;;;;0.73;100.00;99942.83;2083247;85;25789;-72
2021/01/06 03:23:51;;;;;;;12.20;10.38;;;;;;;0.73;100.00;99941.52;2083188;85;26395;-73
2021/01/06 03:26:55;;;;;;;13.30;11.27;;;;;;;0.71;100.00;99944.58;2083456;85;27519;-72
2021/01/06 03:29:59;;;;;;;14.60;11.50;;;;;;;0.71;100.00;99943.27;2083209;85;26367;-72
2021/01/06 03:33:20;;;;;;;12.10;10.82;;;;;;;0.67;100.00;99945.49;2083210;85;26550;-73
2021/01/06 03:36:25;;;;;;;12.43;11.12;;;;;;;0.74;100.00;99948.51;2083711;85;25842;-72
2021/01/06 03:39:31;;;;;;;12.50;11.07;;;;;;;0.76;100.00;99945.86;2083500;85;25774;-69
2021/01/06 03:42:33;;;;;;;13.33;11.73;;;;;;;0.81;100.00;99947.15;2067451;85;27655;-70
2021/01/06 03:45:39;;;;;;;13.60;11.93;;;;;;;0.82;100.00;99940.56;2083321;85;25895;-73
2021/01/06 03:49:03;;;;;;;15.47;12.07;;;;;;;0.85;100.00;99942.30;2083194;85;25791;-73
2021/01/06 03:52:30;;;;;;;16.20;12.53;;;;;;;0.83;100.00;99942.77;2083286;84;25831;-72
2021/01/06 03:55:57;;;;;;;17.65;14.30;;;;;;;0.83;100.00;99944.08;2083491;85;25961;-69
2021/01/06 03:59:27;;;;;;;14.70;11.80;;;;;;;0.79;100.00;99946.72;2082660;85;28372;-72
2021/01/06 04:02:41;;;;;;;13.73;12.13;;;;;;;0.78;100.00;99944.97;2083339;85;25866;-73
2021/01/06 04:05:46;;;;;;;13.93;11.87;;;;;;;0.81;100.00;99944.10;2083267;85;26632;-69
2021/01/06 04:08:55;;;;;;;14.35;11.78;;;;;;;0.86;100.00;99942.73;2083570;85;26342;-73
2021/01/06 04:12:09;;;;;;;14.30;12.47;;;;;;;0.89;100.00;99938.78;2083427;85;25792;-69
2021/01/06 04:15:14;;;;;;;19.23;14.07;;;;;;;0.89;100.00;99945.34;2083328;85;27551;-72
2021/01/06 04:18:15;;;;;;;15.63;12.77;;;;;;;0.90;100.00;99945.78;2083189;85;25810;-73
2021/01/06 04:21:16;;;;;;;15.63;13.10;;;;;;;0.89;100.00;99940.09;2083201;85;25833;-72
2021/01/06 04:24:17;;;;;;;15.65;13.50;;;;;;;0.85;100.00;99940.98;2083250;85;25728;-73
2021/01/06 04:27:19;;;;;;;17.13;14.67;;;;;;;0.84;100.00;99933.56;2083386;85;25987;-73
2021/01/06 04:30:34;;;;;;;15.77;13.47;;;;;;;0.84;100.00;99942.75;2083418;85;27549;-73
2021/01/06 04:33:44;;;;;;;15.43;13.27;;;;;;;0.90;100.00;99941.39;2083275;85;25935;-73
2021/01/06 04:36:45;;;;;;;16.83;14.10;;;;;;;0.90;100.00;99950.57;2083397;85;25960;-72
2021/01/06 04:39:46;;;;;;;15.80;13.77;;;;;;;0.92;100.00;99951.86;2083460;85;25714;-73
2021/01/06 04:42:48;;;;;;;16.03;13.60;;;;;;;0.92;100.00;99960.63;2083311;85;26065;-74
2021/01/06 04:46:34;;;;;;;15.15;12.70;;;;;;;0.91;100.00;99952.77;2083060;85;28301;-73
2021/01/06 04:50:30;;;;;;;17.03;13.57;;;;;;;0.91;100.00;99954.09;2083345;85;25840;-71
2021/01/06 04:54:04;;;;;;;15.47;13.10;;;;;;;0.88;100.00;99958.89;2083621;84;26874;-73
2021/01/06 04:57:23;;;;;;;16.43;13.47;;;;;;;0.88;100.00;99969.84;2017539;88;25887;-73
2021/01/06 05:01:12;;;;;;;16.17;12.75;;;;;;;0.93;100.00;99975.50;2083582;85;25984;-73
2021/01/06 05:04:47;;;;;;;16.23;12.53;;;;;;;0.99;100.00;99971.93;2083223;85;27759;-72
2021/01/06 05:08:08;;;;;;;16.33;13.30;;;;;;;1.03;100.00;99975.41;2083450;85;25788;-69
2021/01/06 05:11:27;;;;;;;16.10;13.40;;;;;;;1.02;100.00;99975.86;2083582;85;25737;-72
2021/01/06 05:14:46;;;;;;;18.50;14.50;;;;;;;1.01;100.00;99978.05;2080215;85;25714;-73
2021/01/06 05:17:49;;;;;;;20.40;15.70;;;;;;;0.97;100.00;99974.14;2083642;85;26389;-75
2021/01/06 05:20:50;;;;;;;18.67;15.30;;;;;;;0.97;100.00;99988.16;2083126;85;27399;-73
2021/01/06 05:24:20;;;;;;;16.43;14.53;;;;;;;0.98;100.00;99993.84;2083322;85;34944;-73
2021/01/06 05:27:27;;;;;;;17.92;14.33;;;;;;;0.98;100.00;99988.59;2069456;85;25844;-72
2021/01/06 05:30:35;;;;;;;17.40;13.73;;;;;;;1.02;100.00;99985.05;2082965;85;26038;-73
2021/01/06 05:33:42;;;;;;;18.57;13.40;;;;;;;1.05;100.00;99990.30;2083321;85;25689;-72
2021/01/06 05:36:44;;;;;;;19.27;14.67;;;;;;;1.05;100.00;99990.72;2083093;85;28327;-71
2021/01/06 05:39:45;;;;;;;18.17;13.57;;;;;;;1.03;100.00;99989.42;2083631;85;25856;-74
2021/01/06 05:43:00;;;;;;;19.47;15.67;;;;;;;1.03;100.00;99979.34;2083036;85;26001;-73
2021/01/06 05:46:08;;;;;;;19.90;15.47;;;;;;;1.02;100.00;99994.23;2082939;85;25876;-73
2021/01/06 05:49:27;;;;;;;19.32;14.78;;;;;;;1.02;100.00;99992.06;2083185;85;26000;-72
2021/01/06 05:52:31;;;;;;;24.20;15.75;;;;;;;1.06;100.00;99995.94;2083151;85;28422;-69
2021/01/06 05:55:36;;;;;;;17.73;13.77;;;;;;;1.05;100.00;99994.65;2067370;85;26537;-72
2021/01/06 05:58:42;;;;;;;18.87;14.93;;;;;;;1.08;100.00;99992.02;2083130;85;26044;-72
2021/01/06 06:02:31;;;;;;;19.13;15.33;;;;;;;1.07;100.00;100002.94;2082777;85;25774;-73
2021/01/06 06:05:43;;;;;;;17.77;13.97;;;;;;;1.05;100.00;100006.05;2021715;88;25943;-72
2021/01/06 06:09:04;;;;;;;20.20;13.63;;;;;;;0.97;100.00;99999.97;2082261;85;28365;-71
2021/01/06 06:12:17;;;;;;;22.70;15.40;;;;;;;0.95;100.00;100003.03;2083180;85;25934;-73
2021/01/06 06:15:56;;;;;;;20.87;14.53;;;;;;;0.97;100.00;99999.97;2083007;85;28066;-72
2021/01/06 06:19:17;;;;;;;20.43;14.27;;;;;;;0.96;100.00;100004.78;1986663;88;25864;-73
2021/01/06 06:22:29;;;;;;;18.10;13.20;;;;;;;1.02;100.00;100008.67;2083179;85;25741;-61
2021/01/06 06:25:35;;;;;;;17.20;12.60;;;;;;;1.00;100.00;100005.64;2083476;85;27551;-73
2021/01/06 06:28:47;;;;;;;18.43;14.27;;;;;;;0.98;100.00;100008.28;2083121;85;25828;-73
2021/01/06 06:31:55;;;;;;;19.40;13.77;;;;;;;0.97;100.00;100009.58;2082744;85;26506;-72
2021/01/06 06:35:07;;;;;;;16.20;12.27;;;;;;;0.99;100.00;100020.49;2083469;85;25905;-69
2021/01/06 06:38:09;;;;;;;17.63;13.63;;;;;;;0.98;100.00;100020.52;2081636;85;25922;-72
2021/01/06 06:41:24;;;;;;;17.17;12.90;;;;;;;1.03;100.00;100022.66;2082999;85;28331;-73
2021/01/06 06:44:31;;;;;;;15.55;12.45;;;;;;;1.04;100.00;100027.03;2081787;85;25756;-72
2021/01/06 06:48:09;;;;;;;18.90;12.73;;;;;;;1.05;100.00;100024.42;2082879;85;26189;-73
2021/01/06 06:51:21;;;;;;;20.57;14.63;;;;;;;1.07;100.00;100025.25;2083125;85;25863;-73
2021/01/06 06:54:27;;;;;;;19.73;14.33;;;;;;;1.06;100.00;100033.16;2104446;84;26010;-73
2021/01/06 06:57:35;;;;;;;17.77;12.78;;;;;;;1.04;100.00;100033.17;2104865;84;28082;-73
2021/01/06 07:00:37;;;;;;;18.73;13.10;;;;;;;1.01;100.00;100034.95;2105164;84;25843;-69
2021/01/06 07:03:43;;;;;;;15.97;12.50;;;;;;;1.02;100.00;100033.61;2104998;84;25832;-73
2021/01/06 07:06:52;;;;;;;18.50;13.05;;;;;;;1.01;100.00;100031.86;2102612;84;26306;-72
2021/01/06 07:09:53;;;;;;;15.90;12.20;;;;;;;1.03;100.00;100037.09;2104701;84;26283;-72
2021/01/06 07:13:02;;;;;;;15.50;12.43;;;;;;;1.07;100.00;100031.81;2104370;84;27719;-70
2021/01/06 07:16:16;;;;;;;19.95;13.58;;;;;;;1.08;100.00;100038.81;2104648;84;26255;-73
2021/01/06 07:19:56;;;;;;;16.70;12.30;;;;;;;1.05;100.00;100037.55;2105714;84;25848;-72
2021/01/06 07:23:03;;;;;;;17.27;13.57;;;;;;;1.04;100.00;100044.98;2105464;84;25737;-73
2021/01/06 07:26:24;;;;;;;17.42;12.85;;;;;;;1.01;100.00;100037.57;2105285;84;25757;-72
2021/01/06 07:29:32;;;;;;;18.27;12.77;;;;;;;1.04;100.00;100038.84;2105121;84;27615;-74
2021/01/06 07:32:43;;;;;;;14.87;12.47;;;;;;;1.03;100.00;100045.86;2105038;84;26110;-72
2021/01/06 07:35:46;;;;;;;18.87;12.30;;;;;;;1.02;100.00;100045.42;2104782;84;25870;-74
2021/01/06 07:38:49;;;;;;;14.10;11.83;;;;;;;1.09;100.00;100057.63;2105097;84;25784;-73
2021/01/06 07:41:51;;;;;;;19.80;14.30;;;;;;;1.08;100.00;100066.38;2104506;84;25790;-73
2021/01/06 07:44:54;;;;;;;19.00;13.57;;;;;;;1.09;100.00;100069.44;2104857;84;27649;-73
2021/01/06 07:48:19;;;;;;;18.97;12.17;;;;;;;1.06;100.00;100078.64;2084593;84;25816;-73
2021/01/06 07:51:43;;;;;;;17.45;12.70;;;;;;;1.06;100.00;100076.02;2104990;84;25804;-73
2021/01/06 07:55:04;;;;;;;16.60;12.83;;;;;;;1.08;100.00;100082.13;2104440;84;25722;-73
2021/01/06 07:58:19;;;;;;;19.20;13.87;;;;;;;1.12;100.00;100084.30;2104377;84;26011;-73
2021/01/06 08:01:48;;;;;;;18.20;13.22;;;;;;;1.15;100.00;100080.78;2104961;84;28325;-73
2021/01/06 08:05:00;;;;;;;18.43;13.47;;;;;;;1.10;100.00;100079.48;2104834;84;26054;-70
2021/01/06 08:08:15;;;;;;;20.90;15.10;;;;;;;1.06;100.00;100082.58;2104492;84;25826;-74
2021/01/06 08:11:19;;;;;;;18.43;13.30;;;;;;;1.07;100.00;100081.70;2104829;84;25743;-74
2021/01/06 08:14:26;;;;;;;18.85;14.23;;;;;;;1.07;100.00;100083.47;2104258;84;25815;-72
2021/01/06 08:17:32;;;;;;;17.37;13.78;;;;;;;1.08;100.00;100086.08;2103197;83;28506;-72
2021/01/06 08:21:09;;;;;;;19.20;12.98;;;;;;;1.16;100.00;100086.47;2103265;84;25859;-72
2021/01/06 08:24:22;;;;;;;;;;;;;;;1.22;100.00;100089.05;2106784;83;27996;-73
2021/01/06 08:27:35;;;;;;;20.00;13.80;;;;;;;1.25;100.00;100082.48;2068797;82;125706;-71
2021/01/06 08:30:43;;;;;;;20.70;15.03;;;;;;;1.24;100.00;100082.05;2119241;79;187952;-70
2021/01/06 08:33:54;;;;;;;20.33;14.13;;;;;;;1.22;100.00;100078.55;2039002;83;197203;-69
2021/01/06 08:37:00;;;;;;;19.07;13.63;;;;;;;1.22;100.00;100082.48;2021408;87;67781;-71
2021/01/06 08:40:05;;;;;;;18.97;13.23;;;;;;;1.20;100.00;100080.33;2038437;86;27551;-71
2021/01/06 08:43:13;;;;;;;18.70;13.70;;;;;;;1.25;100.00;100086.41;2040189;85;25852;-69
2021/01/06 08:46:25;;;;;;;15.13;12.20;;;;;;;1.32;100.00;100082.87;2032774;87;26624;-70
2021/01/06 08:49:34;;;;;;;21.00;14.78;;;;;;;1.35;100.00;100084.14;2036271;86;26822;-70
2021/01/06 08:52:35;;;;;;;16.50;12.93;;;;;;;1.37;100.00;100081.07;2038046;87;25978;-67
2021/01/06 08:55:42;;;;;;;19.87;13.97;;;;;;;1.36;100.00;100081.95;2038378;87;27521;-68
2021/01/06 08:58:50;;;;;;;18.23;14.73;;;;;;;1.30;100.00;100083.77;2037322;85;25845;-69
2021/01/06 09:01:56;;;;;;;18.27;13.97;;;;;;;1.31;100.00;100082.43;2033468;87;26410;-70
2021/01/06 09:04:59;;;;;;;18.07;13.93;;;;;;;1.38;100.00;100085.87;2033126;87;25833;-69
2021/01/06 09:08:14;;;;;;;16.23;12.90;;;;;;;1.36;100.00;100081.09;2039345;87;26114;-70
2021/01/06 09:11:35;;;;;;;19.27;14.20;;;;;;;1.43;100.00;100084.96;2039587;87;27380;-71
2021/01/06 09:14:41;;;;;;;19.93;14.93;;;;;;;1.45;100.00;100082.31;2038592;87;26359;-70
2021/01/06 09:17:50;;;;;;;21.33;15.83;;;;;;;1.41;100.00;100083.23;2038415;87;25959;-68
2021/01/06 09:21:14;;;;;;;20.50;15.83;;;;;;;1.40;100.00;100082.38;2024024;87;26268;-70
2021/01/06 09:24:25;;;;;;;21.90;14.80;;;;;;;1.39;100.00;100084.56;2037536;85;25950;-70
2021/01/06 09:27:42;;;;;;;20.45;14.00;;;;;;;1.39;100.00;100088.51;2038702;87;27581;-71
2021/01/06 09:30:42;;;;;;;19.23;13.60;;;;;;;1.47;100.00;100079.70;2034633;87;25840;-70
2021/01/06 09:33:44;;;;;;;18.30;14.63;;;;;;;1.52;100.00;100080.07;2013884;87;26494;-71
2021/01/06 09:36:48;;;;;;;19.83;14.10;;;;;;;1.50;100.00;100077.03;2035180;87;25503;-70
2021/01/06 09:39:51;;;;;;;18.30;14.78;;;;;;;1.50;100.00;100078.34;2035483;87;26354;-69
2021/01/06 09:43:09;;;;;;;19.97;14.20;;;;;;;1.55;100.00;100076.58;2034588;86;27461;-70
2021/01/06 09:46:25;;;;;;;19.95;14.47;;;;;;;1.56;100.00;100076.97;2034163;87;25858;-70
2021/01/06 09:49:37;;;;;;;17.67;13.50;;;;;;;1.57;100.00;100083.55;1989955;87;25962;-71
2021/01/06 09:52:42;;;;;;;16.97;13.38;;;;;;;1.61;100.00;100087.03;2036227;87;27093;-70
2021/01/06 09:55:49;;;;;;;17.92;13.38;;;;;;;1.58;100.00;100081.78;2013038;87;25812;-70
2021/01/06 09:58:51;;;;;;;18.05;13.70;;;;;;;1.66;100.00;100076.03;2034372;87;28952;-70
2021/01/06 10:02:28;;;;;;;18.30;14.10;;;;;;;1.69;100.00;100082.55;2034657;87;25957;-70
2021/01/06 10:06:02;;;;;;;;;;;;;;;1.68;100.00;100080.84;2035652;87;25909;-70
2021/01/06 10:09:23;;;;;;;17.98;12.70;;;;;;;1.68;100.00;100080.84;2033947;87;25888;-69
2021/01/06 10:12:42;;;;;;;17.85;12.75;;;;;;;1.61;100.00;100081.77;2033937;87;26073;-69
2021/01/06 10:16:06;;;;;;;14.15;11.80;;;;;;;1.63;100.00;100097.06;2033448;87;28233;-72
2021/01/06 10:19:40;;;;;;;14.85;11.53;;;;;;;1.64;100.00;100099.27;2033711;87;26456;-71
2021/01/06 10:22:56;;;;;;;17.65;13.62;;;;;;;1.67;100.00;100083.45;2032915;87;25877;-69
2021/01/06 10:26:22;;;;;;;17.17;12.80;;;;;;;1.70;100.00;100082.13;2033892;87;26466;-70
2021/01/06 10:29:41;;;;;;;20.10;14.95;;;;;;;1.68;100.00;100072.95;2025155;87;25918;-72
2021/01/06 10:32:47;;;;;;;15.67;13.10;;;;;;;1.70;100.00;100076.42;2008249;88;27410;-70
2021/01/06 10:36:08;;;;;;;19.80;13.93;;;;;;;1.65;100.00;100065.09;2008023;88;25784;-73
2021/01/06 10:39:26;;;;;;;16.75;13.60;;;;;;;1.70;100.00;100059.34;1992479;88;26184;-71
2021/01/06 10:42:36;;;;;;;17.50;13.20;;;;;;;1.71;100.00;100058.45;2009621;87;26379;-72
2021/01/06 10:45:42;;;;;;;15.48;13.30;;;;;;;1.75;100.00;100055.36;2010594;88;26214;-72
2021/01/06 10:48:47;;;;;;;16.90;13.47;;;;;;;1.73;100.00;100055.38;2011398;88;27779;-72
2021/01/06 10:52:00;;;;;;;18.55;14.07;;;;;;;1.80;100.00;100061.44;2010358;88;26285;-72
2021/01/06 10:55:16;;;;;;;25.40;16.37;;;;;;;1.79;100.00;100058.41;2009615;88;25808;-69
2021/01/06 10:58:37;;;;;;;19.75;14.38;;;;;;;1.82;100.00;100056.19;2007201;87;26530;-72
2021/01/06 11:01:56;;;;;;;19.10;15.43;;;;;;;1.76;100.00;100054.48;2010487;88;26393;-69
2021/01/06 11:05:08;;;;;;;16.67;13.65;;;;;;;1.75;100.00;100057.56;2000398;88;27911;-72
2021/01/06 11:08:46;;;;;;;14.75;12.13;;;;;;;1.74;100.00;100062.38;2011103;88;25807;-72
2021/01/06 11:12:20;;;;;;;16.73;13.70;;;;;;;1.74;100.00;100061.07;1922040;92;26047;-73
2021/01/06 11:15:41;;;;;;;17.77;13.55;;;;;;;1.73;100.00;100055.38;2005530;88;25901;-72
2021/01/06 11:18:53;;;;;;;13.78;12.33;;;;;;;1.74;100.00;100049.67;2010713;86;26311;-72
2021/01/06 11:22:20;;;;;;;18.42;14.55;;;;;;;1.71;100.00;100044.00;2011275;87;27636;-70
2021/01/06 11:25:49;;;;;;;16.30;12.55;;;;;;;1.75;100.00;100048.36;2011242;87;25413;-72
2021/01/06 11:29:15;;;;;;;16.42;12.60;;;;;;;1.73;100.00;100030.84;2010493;87;25900;-71
2021/01/06 11:32:34;;;;;;;13.85;11.38;;;;;;;1.71;100.00;100029.55;2037055;87;25980;-72
2021/01/06 11:35:55;;;;;;;12.80;10.58;;;;;;;1.78;100.00;100018.97;2036191;87;25734;-72
2021/01/06 11:38:59;;;;;;;13.78;10.95;;;;;;;1.85;100.00;100018.02;2036440;87;27418;-74
2021/01/06 11:42:19;;;;;;;16.65;12.43;;;;;;;1.94;100.00;100010.51;2035982;87;25874;-72
2021/01/06 11:45:26;;;;;;;15.15;11.88;;;;;;;2.01;100.00;100017.45;2036530;87;25848;-69
2021/01/06 11:48:38;;;;;;;16.55;11.70;;;;;;;1.97;100.00;100017.92;2036845;85;25934;-73
2021/01/06 11:51:41;;;;;;;10.43;9.33;;;;;;;1.86;100.00;100023.72;2037090;87;25964;-68
2021/01/06 11:54:53;;;;;;;15.88;11.65;;;;;;;1.81;100.00;100029.47;2036362;86;27532;-73
2021/01/06 11:57:59;;;;;;;13.25;10.35;;;;;;;1.75;100.00;100026.02;2036602;87;25873;-74
2021/01/06 12:01:21;;;;;;;13.20;11.17;;;;;;;1.79;100.00;100022.92;2037233;87;26132;-73
2021/01/06 12:04:53;;;;;;;13.03;11.63;;;;;;;1.85;100.00;100023.28;2035802;87;25856;-73
2021/01/06 12:08:19;;;;;;;39.67;33.88;;;;;;;1.83;100.00;100027.70;2035666;85;27304;-73
2021/01/06 12:11:29;;;;;;;19.50;16.85;;;;;;;1.82;100.00;100028.59;2036209;87;27914;-68
2021/01/06 12:14:42;;;;;;;12.43;10.93;;;;;;;1.79;100.00;100022.92;2037258;85;26089;-73
2021/01/06 12:17:53;;;;;;;15.05;11.00;;;;;;;1.72;100.00;100018.16;2033385;86;26283;-73
2021/01/06 12:20:56;;;;;;;19.95;16.93;;;;;;;1.73;100.00;100015.07;2036282;87;26166;-70
2021/01/06 12:24:23;;;;;;;13.72;11.83;;;;;;;1.74;100.00;100009.83;2044187;85;26180;-73
2021/01/06 12:27:39;;;;;;;;;;;;;;;1.80;100.00;100005.38;2039385;87;27481;-70
2021/01/06 12:30:45;;;;;;;9.97;8.37;;;;;;;1.80;100.00;100002.75;2035692;87;25865;-75
2021/01/06 12:34:04;;;;;;;9.60;8.20;;;;;;;1.81;100.00;100003.19;2040615;86;26447;-71
2021/01/06 12:37:16;;;;;;;11.60;9.55;;;;;;;1.82;100.00;99997.91;2036574;86;25829;-72
2021/01/06 12:40:22;;;;;;;9.40;8.50;;;;;;;1.81;100.00;99996.62;2039397;86;25800;-73
2021/01/06 12:43:31;;;;;;;9.88;7.42;;;;;;;1.79;100.00;99997.95;2033527;86;27058;-68
2021/01/06 12:46:44;;;;;;;8.45;7.20;;;;;;;1.74;100.00;100013.77;2044428;86;25900;-72
2021/01/06 12:50:20;;;;;;;11.30;8.80;;;;;;;1.73;100.00;100009.81;2037966;86;26410;-71
2021/01/06 12:53:28;;;;;;;8.33;7.28;;;;;;;1.79;100.00;100011.52;2034262;87;25914;-72
2021/01/06 12:56:46;;;;;;;13.50;10.83;;;;;;;1.81;100.00;100004.50;2035649;87;25845;-72
2021/01/06 12:59:57;;;;;;;10.68;8.10;;;;;;;1.81;100.00;100007.13;2036272;87;27490;-74
2021/01/06 13:03:31;;;;;;;10.50;8.58;;;;;;;1.81;100.00;100008.44;2015935;87;25853;-72
2021/01/06 13:06:37;;;;;;;10.82;8.80;;;;;;;1.79;100.00;100010.20;2035903;86;27435;-73
2021/01/06 13:09:59;;;;;;;11.43;9.20;;;;;;;1.78;100.00;100007.15;2036200;87;25821;-72
2021/01/06 13:13:24;;;;;;;10.23;9.10;;;;;;;1.75;100.00;100003.69;2036023;87;26267;-72
2021/01/06 13:16:31;;;;;;;10.10;8.15;;;;;;;1.80;100.00;100002.30;2036645;87;27371;-71
2021/01/06 13:19:36;;;;;;;;;;;;;;;1.82;100.00;99996.59;2018147;87;25803;-69
2021/01/06 13:22:51;;;;;;;8.25;7.30;;;;;;;1.86;100.00;99994.80;2036576;87;26254;-73
2021/01/06 13:26:18;;;;;;;8.38;7.35;;;;;;;1.98;100.00;99996.43;2036694;87;25759;-70
2021/01/06 13:29:27;;;;;;;8.63;7.30;;;;;;;2.00;100.00;99990.27;2035980;87;25945;-72
2021/01/06 13:32:46;;;;;;;9.33;8.03;;;;;;;2.06;100.00;99994.13;2017712;87;28348;-69
2021/01/06 13:36:05;;;;;;;9.65;7.58;;;;;;;1.98;100.00;99995.12;2017594;87;25902;-72
2021/01/06 13:39:28;;;;;;;11.63;9.20;;;;;;;1.90;100.00;99995.22;2018208;87;26147;-69
2021/01/06 13:42:49;;;;;;;15.15;11.55;;;;;;;1.94;100.00;99998.22;2017323;88;25709;-72
2021/01/06 13:46:07;;;;;;;17.12;13.88;;;;;;;1.90;100.00;99994.76;2014148;87;25825;-72
2021/01/06 13:49:35;;;;;;;12.18;9.70;;;;;;;1.92;100.00;99984.22;2007266;88;28222;-72
2021/01/06 13:52:41;;;;;;;12.05;10.82;;;;;;;1.92;100.00;99988.16;2009821;85;26244;-72
2021/01/06 13:55:59;;;;;;;13.05;11.38;;;;;;;1.98;100.00;99983.28;2017278;87;26114;-72
2021/01/06 13:59:06;;;;;;;15.43;12.58;;;;;;;2.06;100.00;99978.36;2018899;88;25775;-74
2021/01/06 14:02:27;;;;;;;16.00;13.50;;;;;;;2.13;100.00;99979.59;2017866;87;25756;-73
2021/01/06 14:05:39;;;;;;;17.95;14.33;;;;;;;2.13;100.00;99980.91;2016866;87;27957;-72
2021/01/06 14:09:15;;;;;;;19.75;15.08;;;;;;;2.11;100.00;99966.47;2016389;88;26149;-73
2021/01/06 14:12:56;;;;;;;20.90;15.20;;;;;;;2.08;100.00;99971.76;2016889;88;26082;-73
2021/01/06 14:16:36;;;;;;;17.75;13.98;;;;;;;2.02;100.00;99972.72;2016212;87;25770;-73
2021/01/06 14:20:29;;;;;;;17.02;13.65;;;;;;;2.02;100.00;99964.84;2016401;88;25784;-74
2021/01/06 14:23:41;;;;;;;17.65;14.03;;;;;;;2.12;100.00;99957.70;1997514;88;27780;-73
2021/01/06 14:26:53;;;;;;;18.75;14.75;;;;;;;2.14;100.00;99963.82;2017153;88;25771;-74
2021/01/06 14:30:22;;;;;;;22.80;15.85;;;;;;;2.15;100.00;99958.10;2000208;87;27679;-71
2021/01/06 14:33:51;;;;;;;19.75;15.48;;;;;;;2.14;100.00;99962.94;2035705;87;25915;-74
2021/01/06 14:37:00;;;;;;;23.00;17.23;;;;;;;2.05;100.00;99967.41;2005122;88;26537;-72
2021/01/06 14:40:10;;;;;;;19.50;15.55;;;;;;;2.00;100.00;99977.12;2005076;88;28344;-72
2021/01/06 14:43:38;;;;;;;19.02;15.65;;;;;;;2.03;100.00;99977.09;2004889;88;25837;-72
2021/01/06 14:46:54;;;;;;;19.60;15.75;;;;;;;2.10;100.00;99983.59;2005110;88;25806;-74